Skip to main content

NOAA/GLERL Met Station at Michigan City, IN

Previous 5 days (top of hour only)
See also Previous 3 Hours (2 minute increments)
Jump down to Data
Switch to [English][Metric]
Zoom: Click and drag, Pan: shift-click and drag, Unzoom: double-click, Unzoom All






Note: Speed = mean wind during 2-minute period at top of hour,
Gust = max wind during 2-minute period at top of hour,
Peak = max wind during entire hour.
• See also 5-day windrose plot


NOAA/GLERL Met Station at Michigan City, IN

Previous 5 days (top of hour only)
See also Previous 3 Hours (2 minute increments)
Jump up to Graphs
Switch to [English][Metric]
                  Wind  Wind  Wind   Air   Dew   Rel     Sta   PAR
                   Spd   Gst   Dir  Temp    Pt   Hum    Pres uE/m2/
YYYY-MM-DD   CDT   kts   kts   deg     F     F     %   in Hg   sec
2022-05-19 23:00  14.0  17.9   175  73.2   0.0   0.0    0.00     0
2022-05-19 22:00  12.2  15.7   178  74.5   0.0   0.0    0.00     0
2022-05-19 21:00   9.5  12.6   171  76.5   0.0   0.0    0.00     0
2022-05-19 20:00  10.5  13.6   176  79.2   0.0   0.0    0.00     0
2022-05-19 19:00   9.3  12.8   150  81.3   0.0   0.0    0.00   327
2022-05-19 18:00   9.3  11.3   178  82.6   0.0   0.0    0.00   491
2022-05-19 17:00  11.1  13.4   208  82.0   0.0   0.0    0.00   545
2022-05-19 16:00  11.1  12.8   206  81.5   0.0   0.0    0.00   695
2022-05-19 15:00  13.6  16.3   213  79.5   0.0   0.0    0.00  1561
2022-05-19 14:00  17.5  20.8   193  78.6   0.0   0.0    0.00  1637
2022-05-19 13:00  13.8  19.6   208  75.4   0.0   0.0    0.00  1671
2022-05-19 12:00  11.5  15.0   193  71.2   0.0   0.0    0.00  1255
2022-05-19 11:00  12.8  16.5   177  66.6   0.0   0.0    0.00  1501
2022-05-19 10:00  14.0  16.7   187  64.2   0.0   0.0    0.00   655
2022-05-19 09:00  10.1  13.8   177  62.4   0.0   0.0    0.00  1052
2022-05-19 08:00  10.9  12.4   161  58.8   0.0   0.0    0.00   328
2022-05-19 07:00   8.6  10.9   165  56.3   0.0   0.0    0.00   328
2022-05-19 06:00   9.7  10.7   162  54.3   0.0   0.0    0.00     0
2022-05-19 05:00   7.4   8.6   148  52.7   0.0   0.0    0.00     0
2022-05-19 04:00   4.5   5.1    76  52.0   0.0   0.0    0.00     0
2022-05-19 03:00   0.2   1.2   142  52.9   0.0   0.0    0.00     0
2022-05-19 02:00   1.0   2.9    17  53.8   0.0   0.0    0.00     0
2022-05-19 01:00   3.3   3.7   198  53.8   0.0   0.0    0.00     0
2022-05-19 00:00   2.1   2.5   280  53.8   0.0   0.0    0.00     0
2022-05-18 23:00   2.9   3.1   243  53.6   0.0   0.0    0.00     0
2022-05-18 22:00   4.7   6.0   273  53.8   0.0   0.0    0.00     0
2022-05-18 21:00   5.8   6.2   266  53.2   0.0   0.0    0.00     0
2022-05-18 20:00   7.2   8.0   293  54.0   0.0   0.0    0.00     0
2022-05-18 19:00   6.8   7.6   302  55.8   0.0   0.0    0.00     0
2022-05-18 18:00  10.1  11.9   312  58.6   0.0   0.0    0.00     0
2022-05-18 17:00   3.3   3.7   212  62.8   0.0   0.0    0.00   492
2022-05-18 16:00   5.6   6.8   185  61.3   0.0   0.0    0.00   328
2022-05-18 15:00   5.2   6.8   161  61.0   0.0   0.0    0.00   164
2022-05-18 14:00   8.0  10.9   148  59.4   0.0   0.0    0.00   738
2022-05-18 13:00   8.4   9.9   134  57.2   0.0   0.0    0.00   328
2022-05-18 12:00   6.4   8.2   127  55.8   0.0   0.0    0.00   328
2022-05-18 11:00   6.8   8.6   117  55.0   0.0   0.0    0.00   212
2022-05-18 10:00  10.3  14.4   140  56.7   0.0   0.0    0.00   164
2022-05-18 09:00   8.0  11.9   127  57.7   0.0   0.0    0.00   164
2022-05-18 08:00  12.2  14.4    90  56.1   0.0   0.0    0.00   328
2022-05-18 07:00   3.3   4.9   100  56.7   0.0   0.0    0.00     0
2022-05-18 06:00   8.4  10.1    88  56.5   0.0   0.0    0.00     0
2022-05-18 05:00   8.9  11.3   105  56.8   0.0   0.0    0.00     0
2022-05-18 04:00   9.5  11.3   134  55.6   0.0   0.0    0.00     0
2022-05-18 03:00   7.8   8.4    69  56.5   0.0   0.0    0.00     0
2022-05-18 02:00   8.4  10.1   100  58.5   0.0   0.0    0.00     0
2022-05-18 01:00   6.2   8.2   103  58.1   0.0   0.0    0.00     0
2022-05-18 00:00   6.6   7.8    87  57.9   0.0   0.0    0.00     0
2022-05-17 23:00   9.7  11.1    65  55.9   0.0   0.0    0.00     0
2022-05-17 22:00   9.9  10.3    42  55.9   0.0   0.0    0.00     0
2022-05-17 20:00   3.1   3.5    64  56.7   0.0   0.0    0.00     0
2022-05-17 19:00  11.5  12.2    58  55.6   0.0   0.0    0.00     0
2022-05-17 18:00   8.2   8.6    54  54.1   0.0   0.0    0.00   164
2022-05-17 17:00  11.3  12.1    47  52.9   0.0   0.0    0.00   164
2022-05-17 16:00  12.4  13.6    36  52.5   0.0   0.0    0.00   990
2022-05-17 15:00  12.4  13.2    35  52.2   0.0   0.0    0.00   655
2022-05-17 14:00  10.5  11.7    25  52.3   0.0   0.0    0.00  1317
2022-05-17 13:00   9.7  10.3    12  52.7   0.0   0.0    0.00  1781
2022-05-17 12:00  10.7  10.9     4  52.7   0.0   0.0    0.00  1638
2022-05-17 11:00   6.0   6.4   346  55.2   0.0   0.0    0.00  1638
2022-05-17 10:00   7.2   8.2   352  54.5   0.0   0.0    0.00   846
2022-05-17 09:00   8.2   8.7    10  53.8   0.0   0.0    0.00  1147
2022-05-17 08:00   8.0   8.7    43  53.8   0.0   0.0    0.00   820
2022-05-17 07:00  12.1  13.2    53  54.0   0.0   0.0    0.00   355
2022-05-17 06:00  11.1  11.7    43  52.9   0.0   0.0    0.00     7
2022-05-17 05:00  11.3  12.1    31  52.3   0.0   0.0    0.00     0
2022-05-17 04:00  13.4  14.2    29  51.6   0.0   0.0    0.00     0
2022-05-17 03:00   9.3   9.9    25  54.0   0.0   0.0    0.00     0
2022-05-17 02:00  12.2  13.2    32  55.9   0.0   0.0    0.00     0
2022-05-17 01:00  11.9  12.6   357  57.7   0.0   0.0    0.00     0
2022-05-17 00:00  12.2  13.6   337  61.2   0.0   0.0    0.00     0
2022-05-16 23:00   7.8   8.2   224  64.8   0.0   0.0    0.00     0
2022-05-16 22:00   6.6   6.8   225  67.8   0.0   0.0    0.00     0
2022-05-16 21:00   6.0   6.4   225  69.1   0.0   0.0    0.00     0
2022-05-16 20:00   3.5   4.3   224  70.0   0.0   0.0    0.00     0
2022-05-16 13:00   2.5   2.9   286  64.2   0.0   0.0    0.00  1637
2022-05-16 12:00   6.6   6.8   245  60.6   0.0   0.0    0.00  1637
2022-05-16 11:00   9.9  10.3   240  59.2   0.0   0.0    0.00  1630
2022-05-16 10:00  12.2  13.2   250  58.6   0.0   0.0    0.00  1310
2022-05-16 09:00  10.7  11.5   238  56.8   0.0   0.0    0.00  1113
2022-05-16 08:00  10.5  12.8   239  56.8   0.0   0.0    0.00   683
2022-05-16 07:00  10.3  11.3   233  55.9   0.0   0.0    0.00   328
2022-05-16 06:00   8.0   8.7   210  54.7   0.0   0.0    0.00     0
2022-05-16 05:00  10.1  11.1   225  54.9   0.0   0.0    0.00     0
2022-05-16 04:00   9.5  10.5   209  54.9   0.0   0.0    0.00     0
2022-05-16 03:00  10.5  11.3   221  56.5   0.0   0.0    0.00     0
2022-05-16 02:00   8.0   8.6   221  56.3   0.0   0.0    0.00     0
2022-05-16 01:00   7.0   7.6   224  55.9   0.0   0.0    0.00     0
2022-05-16 00:00   4.9   5.4   177  56.7   0.0   0.0    0.00     0
2022-05-15 23:00   2.1   2.3   216  56.7   0.0   0.0    0.00     0
2022-05-15 22:00   2.9   4.5   185  57.6   0.0   0.0    0.00     0
2022-05-15 21:00   2.9   3.5   199  56.7   0.0   0.0    0.00     0
2022-05-15 19:00   6.2   6.8    27  56.5   0.0   0.0    0.00     0